METAR Data
IDs: Format: Raw Decoded Include TAF

Data at: 1233 UTC 15 Jul 2020

KSPA 151215Z AUTO 00000KT 7SM CLR 25/21 A3010 RMK AO2
KSPA 151155Z AUTO 00000KT 7SM CLR 23/21 A3009 RMK AO2
KSPA 151135Z AUTO 00000KT 10SM CLR 23/21 A3009 RMK AO2
KSPA 151115Z AUTO 00000KT 7SM CLR 23/21 A3009 RMK AO2
KSPA 151055Z AUTO 00000KT 7SM CLR 22/21 A3008 RMK AO2
KSPA 151035Z AUTO 00000KT 10SM CLR 22/21 A3008 RMK AO2
KSPA 151015Z AUTO 00000KT 10SM CLR 22/21 A3007 RMK AO2
KSPA 150955Z AUTO 00000KT 10SM CLR 22/21 A3007 RMK AO2
KSPA 150935Z AUTO 00000KT 10SM CLR 22/21 A3006 RMK AO2
KSPA 150915Z AUTO 00000KT 10SM CLR 23/21 A3005 RMK AO2
KSPA 150855Z AUTO 00000KT 7SM CLR 23/22 A3005 RMK AO2
KSPA 150835Z AUTO 00000KT 7SM CLR 23/22 A3006 RMK AO2
KSPA 150815Z AUTO 00000KT 10SM CLR 23/22 A3005 RMK AO2
KSPA 150755Z AUTO 03003KT 10SM CLR 23/22 A3005 RMK AO2
KSPA 150735Z AUTO 00000KT 10SM CLR 23/22 A3004 RMK AO2
KSPA 150715Z AUTO 00000KT 10SM CLR 23/22 A3003 RMK AO2
KSPA 150655Z AUTO 00000KT 10SM CLR 23/22 A3004 RMK AO2
KSPA 150635Z AUTO 00000KT 10SM CLR 23/22 A3004 RMK AO2
KSPA 150615Z AUTO 00000KT 10SM CLR 23/22 A3005 RMK AO2
KSPA 150555Z AUTO 00000KT 10SM CLR 24/22 A3005 RMK AO2
KSPA 150535Z AUTO 00000KT 10SM CLR 24/22 A3005 RMK AO2
KSPA 150515Z AUTO 00000KT 10SM CLR 24/22 A3006 RMK AO2
KSPA 150455Z AUTO 00000KT 10SM CLR 23/22 A3006 RMK AO2
KSPA 150435Z AUTO 00000KT 10SM CLR 25/22 A3006 RMK AO2
KSPA 150415Z AUTO 00000KT 10SM CLR 25/22 A3006 RMK AO2
KSPA 150355Z AUTO 00000KT 10SM CLR 25/22 A3006 RMK AO2
KSPA 150335Z AUTO 00000KT 10SM CLR 26/22 A3006 RMK AO2
KSPA 150315Z AUTO 00000KT 10SM CLR 26/22 A3005 RMK AO2
KSPA 150255Z AUTO 00000KT 10SM CLR 26/22 A3005 RMK AO2
KSPA 150235Z AUTO 00000KT 10SM CLR 26/21 A3005 RMK AO2
KSPA 150215Z AUTO 00000KT 10SM CLR 26/22 A3004 RMK AO2
KSPA 150155Z AUTO 00000KT 10SM CLR 27/21 A3003 RMK AO2
KSPA 150135Z AUTO 00000KT 10SM CLR 27/21 A3003 RMK AO2
KSPA 150115Z AUTO 00000KT 10SM CLR 28/21 A3002 RMK AO2
KSPA 150055Z AUTO 00000KT 10SM CLR 29/21 A3001 RMK AO2
KSPA 150035Z AUTO 00000KT 10SM CLR 30/21 A3001 RMK AO2
KSPA 150015Z AUTO 00000KT 10SM CLR 31/21 A3001 RMK AO2
KSPA 142355Z AUTO 00000KT 10SM CLR 32/20 A3001 RMK AO2
KSPA 142335Z AUTO 14003KT 10SM CLR 32/18 A3000 RMK AO2
KSPA 142315Z AUTO 00000KT 10SM CLR 33/17 A3000 RMK AO2
KSPA 142255Z AUTO 00000KT 10SM SCT060 SCT110 33/17 A3000 RMK AO2
KSPA 142235Z AUTO 00000KT 10SM SCT060 SCT110 32/18 A2999 RMK AO2
KSPA 142215Z AUTO 00000KT 10SM CLR 33/18 A2999 RMK AO2
KSPA 142155Z AUTO 15003KT 10SM SCT065 35/17 A2999 RMK AO2
KSPA 142135Z AUTO 21004KT 10SM SCT065 34/16 A2999 RMK AO2
KSPA 142115Z AUTO 20003KT 10SM SCT055 35/17 A2999 RMK AO2
KSPA 142055Z AUTO 00000KT 10SM BKN055 BKN080 35/16 A2999 RMK AO2
KSPA 142035Z AUTO 00000KT 10SM BKN055 BKN070 34/17 A2999 RMK AO2
KSPA 142015Z AUTO 00000KT 10SM BKN055 34/18 A2999 RMK AO2
KSPA 141955Z AUTO 06003KT 10SM BKN055 34/18 A3000 RMK AO2
KSPA 141935Z AUTO 24004KT 10SM CLR 33/17 A2999 RMK AO2
KSPA 141915Z AUTO 00000KT 10SM CLR 33/17 A3000 RMK AO2
KSPA 141855Z AUTO 00000KT 10SM CLR 33/18 A3000 RMK AO2
KSPA 141835Z AUTO 16005KT 10SM CLR 33/20 A3000 RMK AO2
KSPA 141815Z AUTO 10003KT 10SM SCT042 32/20 A3001 RMK AO2
KSPA 141755Z AUTO 04003KT 10SM SCT042 31/19 A3002 RMK AO2
KSPA 141735Z AUTO 21004KT 10SM SCT040 31/19 A3002 RMK AO2
KSPA 141715Z AUTO 12004KT 10SM CLR 31/19 A3002 RMK AO2
KSPA 141655Z AUTO 11003KT 10SM CLR 31/20 A3003 RMK AO2
KSPA 141635Z AUTO 09004KT 10SM CLR 31/19 A3004 RMK AO2
KSPA 141615Z AUTO 00000KT 10SM CLR 31/19 A3003 RMK AO2
KSPA 141555Z AUTO 04004KT 10SM CLR 30/18 A3003 RMK AO2
KSPA 141535Z AUTO 00000KT 7SM CLR 30/18 A3003 RMK AO2
KSPA 141515Z AUTO 09005KT 10SM CLR 30/18 A3003 RMK AO2
KSPA 141455Z AUTO 08003KT 10SM CLR 29/18 A3004 RMK AO2
KSPA 141435Z AUTO 07004KT 10SM CLR 28/17 A3003 RMK AO2
KSPA 141415Z AUTO 05006KT 10SM CLR 28/17 A3003 RMK AO2
KSPA 141355Z AUTO 06004KT 10SM CLR 27/17 A3003 RMK AO2
KSPA 141335Z AUTO 08004KT 10SM CLR 27/17 A3003 RMK AO2
KSPA 141315Z AUTO 05007KT 10SM CLR 26/17 A3002 RMK AO2
KSPA 141255Z AUTO 05005KT 10SM CLR 26/17 A3002 RMK AO2
KSPA 141235Z AUTO 05006KT 10SM CLR 25/17 A3001 RMK AO2
KSPA 141215Z AUTO 05005KT 10SM CLR 25/17 A3000 RMK AO2
KSPA 141155Z AUTO 02005KT 10SM SCT060 23/17 A3000 RMK AO2
KSPA 141135Z AUTO 02005KT 7SM BKN060 23/17 A2999 RMK AO2
KSPA 141115Z AUTO 03004KT 10SM SCT060 22/17 A2998 RMK AO2
KSPA 141055Z AUTO 02004KT 10SM SCT060 22/17 A2998 RMK AO2
KSPA 141035Z AUTO 36004KT 10SM CLR 22/18 A2997 RMK AO2
KSPA 141015Z AUTO 02005KT 10SM CLR 22/18 A2997 RMK AO2
KSPA 140955Z AUTO 02004KT 10SM CLR 22/18 A2996 RMK AO2
KSPA 140935Z AUTO 04005KT 10SM CLR 22/18 A2995 RMK AO2
KSPA 140915Z AUTO 02006KT 10SM CLR 22/18 A2994 RMK AO2
KSPA 140855Z AUTO 02003KT 10SM CLR 22/18 A2994 RMK AO2
KSPA 140835Z AUTO 00000KT 10SM CLR 23/18 A2995 RMK AO2
KSPA 140815Z AUTO 00000KT 10SM CLR 23/19 A2994 RMK AO2
KSPA 140735Z AUTO 00000KT 10SM CLR 23/20 A2994 RMK AO2
KSPA 140715Z AUTO 00000KT 10SM CLR 23/20 A2994 RMK AO2
KSPA 140655Z AUTO 00000KT 10SM CLR 24/20 A2994 RMK AO2
KSPA 140635Z AUTO 03004KT 10SM SCT100 25/20 A2995 RMK AO2
KSPA 140555Z AUTO 04004KT 10SM SCT080 BKN100 25/19 A2995 RMK AO2
KSPA 140535Z AUTO 04004KT 10SM OVC090 26/18 A2995 RMK AO2
KSPA 140515Z AUTO 03005KT 10SM SCT070 OVC090 26/18 A2994 RMK AO2
KSPA 140455Z AUTO 03003KT 10SM BKN060 OVC080 26/18 A2994 RMK AO2
KSPA 140435Z AUTO 35005KT 10SM BKN060 OVC090 27/18 A2994 RMK AO2
KSPA 140415Z AUTO 35005KT 10SM BKN060 OVC080 27/18 A2994 RMK AO2
KSPA 140355Z AUTO 33003KT 10SM BKN060 OVC070 27/18 A2994 RMK AO2
KSPA 140335Z AUTO 32004KT 10SM BKN060 BKN070 BKN090 27/19 A2993 RMK AO2
KSPA 140315Z AUTO 00000KT 10SM SCT065 SCT110 26/21 A2993 RMK AO2
KSPA 140255Z AUTO 00000KT 10SM CLR 26/20 A2993 RMK AO2
KSPA 140235Z AUTO 00000KT 10SM SCT065 SCT100 26/20 A2991 RMK AO2
KSPA 140215Z AUTO 00000KT 10SM BKN065 BKN100 26/20 A2990 RMK AO2
KSPA 140155Z AUTO 00000KT 10SM SCT065 26/21 A2990 RMK AO2
KSPA 140135Z AUTO 00000KT 10SM SCT065 27/20 A2989 RMK AO2
KSPA 140115Z AUTO 00000KT 10SM CLR 27/20 A2989 RMK AO2
KSPA 140055Z AUTO 00000KT 10SM CLR 29/20 A2989 RMK AO2
KSPA 140035Z AUTO 00000KT 10SM CLR 30/20 A2988 RMK AO2